createdAt,value
2018-12-01T00:23:49.259Z,86.60
2018-12-01T00:26:16.973Z,69.10
2018-12-01T00:28:45.265Z,40.73
2018-12-01T00:31:24.449Z,51.43
2018-12-01T00:36:56.840Z,113.67
2018-12-01T00:39:24.978Z,131.93
2018-12-01T00:41:53.845Z,62.57
2018-12-01T00:51:16.667Z,83.90
2018-12-01T00:53:45.027Z,89.63
2018-12-01T00:56:13.296Z,57.77
2018-12-01T01:01:44.872Z,76.33
2018-12-01T01:10:30.312Z,48.73
2018-12-01T01:24:57.003Z,50.80
2018-12-01T01:27:25.454Z,100.50
2018-12-01T01:33:07.465Z,64.37
2018-12-01T01:35:48.913Z,135.83
2018-12-01T01:44:25.828Z,88.10
2018-12-01T01:46:53.948Z,52.27
2018-12-01T01:49:23.470Z,78.47
2018-12-01T01:51:53.930Z,27.20
2018-12-01T01:57:20.817Z,50.27
2018-12-01T01:59:53.423Z,26.90
2018-12-01T02:05:25.298Z,29.27
2018-12-01T02:07:53.578Z,31.43
2018-12-01T02:10:21.777Z,70.27
2018-12-01T02:13:03.380Z,41.30
2018-12-01T02:15:45.643Z,44.30
2018-12-01T02:18:14.391Z,24.93
2018-12-01T02:23:35.223Z,22.50
2018-12-01T02:26:05.203Z,55.77
2018-12-01T02:28:33.230Z,42.17
2018-12-01T02:31:19.912Z,67.07
2018-12-01T02:33:48.388Z,37.67
2018-12-01T02:39:38.904Z,41.67
2018-12-01T02:51:08.682Z,17.97
2018-12-01T03:02:37.385Z,73.23
2018-12-01T03:11:12.800Z,42.67
2018-12-01T03:13:50.432Z,31.13
2018-12-01T03:22:26.288Z,33.63
2018-12-01T03:28:11.316Z,43.47
2018-12-01T03:30:40.168Z,40.33
2018-12-01T03:33:29.114Z,86.93
2018-12-01T03:35:58.485Z,59.97
2018-12-01T03:41:29.920Z,47.37
2018-12-01T03:43:58.312Z,86.57
2018-12-01T03:46:26.520Z,62.87
2018-12-01T03:48:54.672Z,49.07
2018-12-01T03:51:27.607Z,53.13
2018-12-01T03:53:56.174Z,47.57
2018-12-01T03:56:38.398Z,33.33
2018-12-01T04:02:26.130Z,48.67
2018-12-01T04:04:56.073Z,46.90
2018-12-01T04:07:46.686Z,52.00
2018-12-01T04:10:31.544Z,35.00
2018-12-01T04:13:15.844Z,73.63
2018-12-01T04:15:44.159Z,48.13
2018-12-01T04:21:12.967Z,47.53
2018-12-01T04:24:02.564Z,61.93
2018-12-01T04:30:03.100Z,43.60
2018-12-01T04:32:32.046Z,50.77
2018-12-01T04:40:54.576Z,45.47
2018-12-01T04:43:23.298Z,42.30
2018-12-01T04:45:51.739Z,48.13
2018-12-01T04:48:25.669Z,67.20
2018-12-01T04:50:54.177Z,47.57
2018-12-01T04:53:22.398Z,52.13
2018-12-01T04:58:51.712Z,57.50
2018-12-01T05:01:20.841Z,45.53
2018-12-01T05:03:49.149Z,47.73
2018-12-01T05:09:24.636Z,42.27
2018-12-01T05:17:58.621Z,43.40
2018-12-01T05:23:48.078Z,41.83
2018-12-01T05:26:23.271Z,43.87
2018-12-01T05:32:03.266Z,48.90
2018-12-01T05:40:48.421Z,40.17
2018-12-01T05:43:24.693Z,43.70
2018-12-01T05:57:56.208Z,43.90
2018-12-01T06:00:24.667Z,42.97
2018-12-01T06:09:49.833Z,42.93
2018-12-01T06:15:28.880Z,40.23
2018-12-01T06:18:13.875Z,35.30
2018-12-01T06:20:46.930Z,39.17
2018-12-01T06:23:35.482Z,44.10
2018-12-01T06:29:00.274Z,36.37
2018-12-01T06:31:29.040Z,36.73
2018-12-01T06:37:01.099Z,34.40
2018-12-01T06:39:34.110Z,39.20
2018-12-01T06:45:03.509Z,44.77
2018-12-01T06:47:33.720Z,38.60
2018-12-01T06:50:07.169Z,36.07
2018-12-01T06:52:38.161Z,39.43
2018-12-01T06:55:09.622Z,37.27
2018-12-01T06:57:38.499Z,40.47
2018-12-01T07:00:11.301Z,40.83
2018-12-01T07:02:39.499Z,37.57
2018-12-01T07:05:08.500Z,42.50
2018-12-01T07:07:36.495Z,43.23
2018-12-01T07:10:07.902Z,39.83
2018-12-01T07:15:53.018Z,40.40
2018-12-01T07:18:34.302Z,36.33
2018-12-01T07:24:11.013Z,36.37
2018-12-01T07:26:39.059Z,39.90
2018-12-01T07:32:04.488Z,41.03
2018-12-01T07:34:34.034Z,39.40
2018-12-01T07:37:16.045Z,36.40
2018-12-01T07:45:56.181Z,49.97
2018-12-01T07:48:25.158Z,35.37
2018-12-01T07:50:56.655Z,40.07
2018-12-01T07:53:25.587Z,36.43
2018-12-01T07:56:01.035Z,40.90
2018-12-01T07:58:43.488Z,42.43
2018-12-01T08:01:13.350Z,51.70
2018-12-01T08:06:44.987Z,39.63
2018-12-01T08:09:13.174Z,38.47
2018-12-01T08:11:55.222Z,43.87
2018-12-01T08:14:35.649Z,34.27
2018-12-01T08:17:03.813Z,36.40
2018-12-01T08:19:32.113Z,40.70
2018-12-01T08:22:01.153Z,33.30
2018-12-01T08:27:37.301Z,32.63
2018-12-01T08:30:11.865Z,39.73
2018-12-01T08:32:39.786Z,43.03
2018-12-01T08:35:08.894Z,37.70
2018-12-01T08:40:41.079Z,34.67
2018-12-01T08:43:27.559Z,34.00
2018-12-01T08:46:05.217Z,45.03
2018-12-01T08:48:34.494Z,41.10
2018-12-01T08:51:03.000Z,48.30
2018-12-01T08:53:31.949Z,37.33
2018-12-01T08:56:00.586Z,35.00
2018-12-01T08:58:29.476Z,34.80
2018-12-01T09:00:57.551Z,41.80
2018-12-01T09:03:31.883Z,40.63
2018-12-01T09:06:03.720Z,38.23
2018-12-01T09:08:31.991Z,43.07
2018-12-01T09:10:59.739Z,41.60
2018-12-01T09:13:28.248Z,40.30
2018-12-01T09:15:56.135Z,40.30
2018-12-01T09:18:24.582Z,37.27
2018-12-01T09:20:53.219Z,37.70
2018-12-01T09:23:21.284Z,49.50
2018-12-01T09:25:49.748Z,40.57
2018-12-01T09:28:18.275Z,37.00
2018-12-01T09:30:48.302Z,32.93
2018-12-01T09:33:16.737Z,39.50
2018-12-01T09:35:44.635Z,30.70
2018-12-01T09:38:12.339Z,32.57
2018-12-01T09:40:40.227Z,35.47
2018-12-01T09:43:09.199Z,39.50
2018-12-01T09:45:39.014Z,36.47
2018-12-01T09:48:07.514Z,34.43
2018-12-01T09:50:36.567Z,37.10
2018-12-01T09:53:08.943Z,30.27
2018-12-01T09:55:37.526Z,31.30
2018-12-01T09:58:07.622Z,34.13
2018-12-01T10:00:35.620Z,35.87
2018-12-01T10:03:06.146Z,34.50
2018-12-01T10:05:38.106Z,32.23
2018-12-01T10:08:07.684Z,34.13
2018-12-01T10:10:37.149Z,33.73
2018-12-01T10:13:05.563Z,35.77
2018-12-01T10:15:37.739Z,25.80
2018-12-01T10:18:17.126Z,23.67
2018-12-01T10:20:53.910Z,27.80
2018-12-01T10:23:22.514Z,31.40
2018-12-01T10:26:02.155Z,29.23
2018-12-01T10:28:34.345Z,28.20
2018-12-01T10:31:02.260Z,26.07
2018-12-01T10:33:30.690Z,24.70
2018-12-01T10:35:58.659Z,33.90
2018-12-01T10:38:35.063Z,25.70
2018-12-01T10:41:03.450Z,25.67
2018-12-01T10:43:35.519Z,27.77
2018-12-01T10:46:04.218Z,36.33
2018-12-01T10:48:34.148Z,66.30
2018-12-01T10:51:03.524Z,30.80
2018-12-01T10:53:31.375Z,24.70
2018-12-01T10:56:08.108Z,25.30
2018-12-01T11:01:20.140Z,33.07
2018-12-01T11:03:50.097Z,26.20
2018-12-01T11:06:24.326Z,29.20
2018-12-01T11:08:52.187Z,31.17
2018-12-01T11:11:21.156Z,31.80
2018-12-01T11:13:49.043Z,23.80
2018-12-01T11:16:17.251Z,22.80
2018-12-01T11:18:51.079Z,22.40
2018-12-01T11:21:35.241Z,25.40
2018-12-01T11:24:03.139Z,27.40
2018-12-01T11:26:30.977Z,20.83
2018-12-01T11:28:59.087Z,21.03
2018-12-01T11:31:27.045Z,26.83
2018-12-01T11:33:55.467Z,20.43
2018-12-01T11:36:23.465Z,22.53
2018-12-01T11:38:52.486Z,20.30
2018-12-01T11:41:20.804Z,23.73
2018-12-01T11:43:49.455Z,18.70
2018-12-01T11:46:17.596Z,21.87
2018-12-01T11:48:47.613Z,22.77
2018-12-01T11:51:27.170Z,20.60
2018-12-01T11:53:56.819Z,28.60
2018-12-01T11:56:24.589Z,24.10
2018-12-01T11:58:53.407Z,20.93
2018-12-01T12:01:21.546Z,13.37
2018-12-01T12:03:51.366Z,25.07
2018-12-01T12:06:19.419Z,19.13
2018-12-01T12:08:47.281Z,18.97
2018-12-01T12:11:15.363Z,22.27
2018-12-01T12:13:42.967Z,20.40
2018-12-01T12:16:10.936Z,22.07
2018-12-01T12:18:42.386Z,23.83
2018-12-01T12:21:21.472Z,21.23
2018-12-01T12:23:50.379Z,18.10
2018-12-01T12:26:18.624Z,20.30
2018-12-01T12:28:46.636Z,27.47
2018-12-01T12:31:15.397Z,17.50
2018-12-01T12:33:43.739Z,28.70
2018-12-01T12:36:11.725Z,24.60
2018-12-01T12:38:39.931Z,26.60
2018-12-01T12:41:07.986Z,19.90
2018-12-01T12:43:37.236Z,21.80
2018-12-01T12:46:05.618Z,18.07
2018-12-01T12:48:35.845Z,17.33
2018-12-01T12:51:03.661Z,17.07
2018-12-01T12:53:31.733Z,18.20
2018-12-01T12:56:01.545Z,17.90
2018-12-01T12:58:29.991Z,24.20
2018-12-01T13:01:07.395Z,22.03
2018-12-01T13:03:40.404Z,17.90
2018-12-01T13:06:23.018Z,17.20
2018-12-01T13:08:51.909Z,17.77
2018-12-01T13:11:20.315Z,13.70
2018-12-01T13:13:48.157Z,14.97
2018-12-01T13:16:18.595Z,20.43
2018-12-01T13:18:46.493Z,16.83
2018-12-01T13:21:14.635Z,18.20
2018-12-01T13:23:42.675Z,15.53
2018-12-01T13:26:12.729Z,17.17
2018-12-01T13:28:40.983Z,14.37
2018-12-01T13:31:08.909Z,20.17
2018-12-01T13:33:37.244Z,15.83
2018-12-01T13:36:05.481Z,18.10
2018-12-01T13:38:35.058Z,17.43
2018-12-01T13:41:09.680Z,17.90
2018-12-01T13:43:41.037Z,14.10
2018-12-01T13:46:08.787Z,20.23
2018-12-01T13:51:21.945Z,13.57
2018-12-01T13:53:56.706Z,12.77
2018-12-01T13:56:24.781Z,12.90
2018-12-01T13:58:53.129Z,13.90
2018-12-01T14:01:21.790Z,10.07
2018-12-01T14:03:56.275Z,14.53
2018-12-01T14:06:24.308Z,11.97
2018-12-01T14:08:52.478Z,12.30
2018-12-01T14:11:21.985Z,14.63
2018-12-01T14:13:49.895Z,17.03
2018-12-01T14:16:20.421Z,12.83
2018-12-01T14:18:48.182Z,13.07
2018-12-01T14:21:22.909Z,9.03
2018-12-01T14:23:50.697Z,19.43
2018-12-01T14:26:18.950Z,13.70
2018-12-01T14:28:47.717Z,12.30
2018-12-01T14:31:23.230Z,15.20
2018-12-01T14:36:44.002Z,17.97
2018-12-01T14:39:19.654Z,19.50
2018-12-01T14:41:49.221Z,17.87
2018-12-01T14:44:17.566Z,18.27
2018-12-01T14:46:45.727Z,15.27
2018-12-01T14:49:13.596Z,10.67
2018-12-01T14:51:41.932Z,13.40
2018-12-01T14:54:10.225Z,37.10
2018-12-01T14:56:42.231Z,10.97
2018-12-01T14:59:10.888Z,21.83
2018-12-01T15:01:39.261Z,14.40
2018-12-01T15:04:08.196Z,16.40
2018-12-01T15:06:36.303Z,9.33
2018-12-01T15:09:07.540Z,12.30
2018-12-01T15:11:35.917Z,24.83
2018-12-01T15:14:04.076Z,12.30
2018-12-01T15:16:32.054Z,10.50
2018-12-01T15:19:00.369Z,10.27
2018-12-01T15:21:28.590Z,14.33
2018-12-01T15:24:01.314Z,12.80
2018-12-01T15:26:30.268Z,18.30
2018-12-01T15:28:58.394Z,16.13
2018-12-01T15:31:26.617Z,9.30
2018-12-01T15:33:55.259Z,13.37
2018-12-01T15:36:23.737Z,12.77
2018-12-01T15:38:52.157Z,13.70
2018-12-01T15:41:22.730Z,13.97
2018-12-01T15:43:51.111Z,19.40
2018-12-01T15:46:20.351Z,18.53
2018-12-01T15:48:48.283Z,12.60
2018-12-01T15:51:16.130Z,13.50
2018-12-01T15:53:44.123Z,9.63
2018-12-01T15:56:11.966Z,13.80
2018-12-01T15:58:39.720Z,12.60
2018-12-01T16:01:07.522Z,9.83
2018-12-01T16:03:35.271Z,13.07
2018-12-01T16:06:03.106Z,11.43
2018-12-01T16:08:31.237Z,13.70
2018-12-01T16:10:59.001Z,11.30
2018-12-01T16:13:27.486Z,17.40
2018-12-01T16:16:02.193Z,14.97
2018-12-01T16:18:30.339Z,12.03
2018-12-01T16:20:58.337Z,9.50
2018-12-01T16:23:26.573Z,12.53
2018-12-01T16:25:54.608Z,9.70
2018-12-01T16:28:22.452Z,16.43
2018-12-01T16:30:50.493Z,13.27
2018-12-01T16:33:20.352Z,12.80
2018-12-01T16:35:49.835Z,12.20
2018-12-01T16:38:23.429Z,9.23
2018-12-01T16:40:56.966Z,11.37
2018-12-01T16:43:25.773Z,11.63
2018-12-01T16:45:54.172Z,12.50
2018-12-01T16:48:21.946Z,9.67
2018-12-01T16:50:49.858Z,13.20
2018-12-01T16:53:18.942Z,8.60
2018-12-01T16:55:46.644Z,10.00
2018-12-01T16:58:14.778Z,10.40
2018-12-01T17:00:43.019Z,8.73
2018-12-01T17:03:11.434Z,14.73
2018-12-01T17:06:04.023Z,12.57
2018-12-01T17:08:31.780Z,9.77
2018-12-01T17:11:05.760Z,11.80
2018-12-01T17:13:33.728Z,9.60
2018-12-01T17:16:03.574Z,15.20
2018-12-01T17:18:34.825Z,13.40
2018-12-01T17:21:02.782Z,22.97
2018-12-01T17:23:30.598Z,13.77
2018-12-01T17:25:58.642Z,14.53
2018-12-01T17:28:26.465Z,10.73
2018-12-01T17:30:54.240Z,9.77
2018-12-01T17:33:35.446Z,10.67
2018-12-01T17:36:03.783Z,18.60
2018-12-01T17:38:33.906Z,15.03
2018-12-01T17:42:03.132Z,12.40
2018-12-01T17:48:02.908Z,15.80
2018-12-01T17:50:30.887Z,15.80
2018-12-01T18:28:25.201Z,10.97
2018-12-01T18:30:53.612Z,14.60
2018-12-01T18:33:29.529Z,10.70
2018-12-01T18:35:58.404Z,11.10
2018-12-01T18:38:26.849Z,12.43
2018-12-01T18:41:02.007Z,12.23
2018-12-01T18:43:37.386Z,12.60
2018-12-01T18:46:10.125Z,19.60
2018-12-01T18:48:57.225Z,14.10
2018-12-01T18:54:48.109Z,14.90
2018-12-01T18:57:33.232Z,27.97
2018-12-01T19:02:47.076Z,17.30
2018-12-01T19:05:15.036Z,12.37
2018-12-01T19:10:40.529Z,24.20
2018-12-01T19:13:08.549Z,11.60
2018-12-01T19:15:36.626Z,10.73
2018-12-01T19:18:06.127Z,18.63
2018-12-01T19:20:35.911Z,11.73
2018-12-01T19:23:10.406Z,11.07
2018-12-01T19:25:40.460Z,20.17
2018-12-01T19:28:16.422Z,26.43
2018-12-01T19:30:44.988Z,15.40
2018-12-01T19:33:15.687Z,13.73
2018-12-01T19:36:12.888Z,29.83
2018-12-01T19:38:48.381Z,19.93
2018-12-01T19:41:17.387Z,15.43
2018-12-01T19:43:47.944Z,17.27
2018-12-01T19:46:17.676Z,16.53
2018-12-01T19:48:48.743Z,13.70
2018-12-01T19:51:16.601Z,22.97
2018-12-01T19:53:44.517Z,20.10
2018-12-01T19:56:21.318Z,15.63
2018-12-01T19:58:49.298Z,17.23
2018-12-01T20:01:27.525Z,19.00
2018-12-01T20:04:09.843Z,11.10
2018-12-01T20:06:38.378Z,13.00
2018-12-01T20:18:34.669Z,18.53
2018-12-01T23:16:09.275Z,4.80
2018-12-01T23:21:54.926Z,5.10
2018-12-01T23:42:34.171Z,11.47
2018-12-01T23:45:06.523Z,10.77
